Terminal Aerodrome Forecast
Issued by NWS Wilmington, OH

Home | Current Version | Previous Version | Text Only | Print | Product List | Glossary On
Versions: 1 2 3 4 5 6 7 8 9 10 11 12 13 14 15 16 17 18
000
FTUS41 KILN 270827 AAA
TAFILN
TAF AMD
KILN 270827Z 2708/2806 00000KT 1 1/2SM BR SCT120 BKN250
     FM271400 24007KT P6SM SCT025 BKN045
     FM271800 18007KT P6SM VCSH SCT025 BKN080
     FM280000 16004KT P6SM -SHRA VCTS BKN025CB BKN080=

USA.gov is the U.S. government's official web portal to all federal, state and local government web resources and services.